createdAt,value
2022-09-28T00:00:33.145Z,4.33
2022-09-28T00:03:42.967Z,5.33
2022-09-28T00:06:49.053Z,4.90
2022-09-28T00:09:55.522Z,4.40
2022-09-28T00:13:03.402Z,4.97
2022-09-28T00:16:12.230Z,4.57
2022-09-28T00:19:20.831Z,4.33
2022-09-28T00:22:27.218Z,4.57
2022-09-28T00:25:32.930Z,4.67
2022-09-28T00:28:39.354Z,5.30
2022-09-28T00:31:45.895Z,4.93
2022-09-28T00:34:55.391Z,4.80
2022-09-28T00:38:03.238Z,4.90
2022-09-28T00:41:10.078Z,5.80
2022-09-28T00:44:44.369Z,6.30
2022-09-28T00:47:55.144Z,6.93
2022-09-28T00:51:10.104Z,6.40
2022-09-28T00:54:19.158Z,5.67
2022-09-28T00:57:25.913Z,5.13
2022-09-28T01:00:32.607Z,5.10
2022-09-28T01:03:38.265Z,4.93
2022-09-28T01:06:50.082Z,5.20
2022-09-28T01:09:57.035Z,4.77
2022-09-28T01:13:03.732Z,5.20
2022-09-28T01:16:17.234Z,4.60
2022-09-28T01:19:44.031Z,4.23
2022-09-28T01:23:38.856Z,4.97
2022-09-28T01:27:06.904Z,5.10
2022-09-28T01:30:15.440Z,4.43
2022-09-28T01:33:27.387Z,4.97
2022-09-28T01:36:39.116Z,4.97
2022-09-28T01:39:49.982Z,4.07
2022-09-28T01:43:06.117Z,4.40
2022-09-28T01:46:20.359Z,3.63
2022-09-28T01:49:34.361Z,4.27
2022-09-28T01:52:49.653Z,3.70
2022-09-28T01:56:00.877Z,3.97
2022-09-28T01:59:15.180Z,3.70
2022-09-28T02:02:27.296Z,3.30
2022-09-28T02:05:36.733Z,3.23
2022-09-28T02:08:50.575Z,3.50
2022-09-28T02:12:03.397Z,3.60
2022-09-28T02:15:19.805Z,3.20
2022-09-28T02:18:25.476Z,3.30
2022-09-28T02:21:40.668Z,3.57
2022-09-28T02:24:55.854Z,2.83
2022-09-28T02:28:09.953Z,3.10
2022-09-28T02:31:18.491Z,3.10
2022-09-28T02:34:25.043Z,2.73
2022-09-28T02:37:31.316Z,3.07
2022-09-28T02:40:40.353Z,2.40
2022-09-28T02:44:00.588Z,2.57
2022-09-28T02:47:22.674Z,2.83
2022-09-28T02:50:40.901Z,2.47
2022-09-28T02:54:09.664Z,2.27
2022-09-28T02:57:31.370Z,2.87
2022-09-28T03:00:48.010Z,2.30
2022-09-28T03:04:04.244Z,1.93
2022-09-28T03:07:18.997Z,2.00
2022-09-28T03:10:30.653Z,2.10
2022-09-28T03:13:38.448Z,2.30
2022-09-28T03:16:46.861Z,2.33
2022-09-28T03:19:56.222Z,2.00
2022-09-28T03:23:23.680Z,2.10
2022-09-28T03:26:30.765Z,1.70
2022-09-28T03:29:36.542Z,1.90
2022-09-28T03:32:45.388Z,2.30
2022-09-28T03:35:54.489Z,1.50
2022-09-28T03:39:03.207Z,1.70
2022-09-28T03:42:09.030Z,1.63
2022-09-28T03:45:19.377Z,1.93
2022-09-28T03:48:32.051Z,1.90
2022-09-28T03:51:42.075Z,2.10
2022-09-28T03:54:49.335Z,2.20
2022-09-28T03:57:57.308Z,2.10
2022-09-28T04:01:06.489Z,2.30
2022-09-28T04:04:14.934Z,2.30
2022-09-28T04:07:23.718Z,2.40
2022-09-28T04:10:32.455Z,1.90
2022-09-28T04:13:38.098Z,2.40
2022-09-28T04:16:48.383Z,2.20
2022-09-28T04:19:54.890Z,2.50
2022-09-28T04:23:20.504Z,2.50
2022-09-28T04:26:28.041Z,2.33
2022-09-28T04:29:31.713Z,2.20
2022-09-28T04:32:38.638Z,2.40
2022-09-28T04:35:45.457Z,2.07
2022-09-28T04:38:54.350Z,2.50
2022-09-28T04:42:03.535Z,2.33
2022-09-28T04:45:10.838Z,2.50
2022-09-28T04:48:22.318Z,2.63
2022-09-28T04:51:40.311Z,2.67
2022-09-28T04:54:49.524Z,2.47
2022-09-28T04:57:56.034Z,2.83
2022-09-28T05:01:07.000Z,2.73
2022-09-28T05:04:38.890Z,2.50
2022-09-28T05:08:05.742Z,2.27
2022-09-28T05:11:16.352Z,2.90
2022-09-28T05:14:24.613Z,2.43
2022-09-28T05:17:31.931Z,2.40
2022-09-28T05:21:12.989Z,2.33
2022-09-28T05:24:19.293Z,2.30
2022-09-28T05:27:33.217Z,2.07
2022-09-28T05:30:45.440Z,2.33
2022-09-28T05:34:06.888Z,1.97
2022-09-28T05:37:12.518Z,2.30
2022-09-28T05:40:19.685Z,2.17
2022-09-28T05:43:29.325Z,2.00
2022-09-28T05:46:35.888Z,1.90
2022-09-28T05:49:41.525Z,2.00
2022-09-28T05:52:48.022Z,2.00
2022-09-28T05:55:53.703Z,2.20
2022-09-28T05:59:05.401Z,2.47
2022-09-28T06:02:13.545Z,2.40
2022-09-28T06:05:22.000Z,2.70
2022-09-28T06:08:27.563Z,2.47
2022-09-28T06:11:48.491Z,2.60
2022-09-28T06:15:20.413Z,2.27
2022-09-28T06:18:27.003Z,2.37
2022-09-28T06:21:59.361Z,2.60
2022-09-28T06:29:39.399Z,2.10
2022-09-28T06:32:50.039Z,2.33
2022-09-28T06:35:55.832Z,2.50
2022-09-28T06:39:03.187Z,2.23
2022-09-28T06:42:08.985Z,1.90
2022-09-28T06:45:34.005Z,1.90
2022-09-28T06:49:19.233Z,1.83
2022-09-28T06:52:45.235Z,1.63
2022-09-28T06:56:12.130Z,1.97
2022-09-28T06:59:18.595Z,2.23
2022-09-28T07:02:24.286Z,2.10
2022-09-28T07:05:37.155Z,2.13
2022-09-28T07:09:30.476Z,2.50
2022-09-28T07:12:52.453Z,2.57
2022-09-28T07:16:12.684Z,2.23
2022-09-28T07:19:19.282Z,1.90
2022-09-28T07:22:40.439Z,2.17
2022-09-28T07:25:50.090Z,1.97
2022-09-28T07:29:09.944Z,2.40
2022-09-28T07:32:37.659Z,2.10
2022-09-28T07:36:07.698Z,2.00
2022-09-28T07:39:17.441Z,1.53
2022-09-28T07:42:23.425Z,1.70
2022-09-28T07:45:30.341Z,1.60
2022-09-28T07:48:37.009Z,1.77
2022-09-28T07:52:06.516Z,1.63
2022-09-28T07:55:22.798Z,1.93
2022-09-28T07:58:49.756Z,1.77
2022-09-28T08:02:03.527Z,1.87
2022-09-28T08:05:11.913Z,1.70
2022-09-28T08:08:18.709Z,1.70
2022-09-28T08:11:28.223Z,1.30
2022-09-28T08:14:55.817Z,1.50
2022-09-28T08:18:34.946Z,1.60
2022-09-28T08:21:49.323Z,1.67
2022-09-28T08:24:56.332Z,1.67
2022-09-28T08:28:06.422Z,1.67
2022-09-28T08:31:16.775Z,1.50
2022-09-28T08:35:01.001Z,1.40
2022-09-28T08:38:24.009Z,1.50
2022-09-28T08:41:54.045Z,1.43
2022-09-28T08:45:41.793Z,1.13
2022-09-28T08:49:24.610Z,1.53
2022-09-28T08:52:51.488Z,1.47
2022-09-28T08:56:13.830Z,1.50
2022-09-28T08:59:25.621Z,1.07
2022-09-28T09:02:42.539Z,1.13
2022-09-28T09:06:08.764Z,0.80
2022-09-28T09:09:50.733Z,1.00
2022-09-28T09:13:07.343Z,0.90
2022-09-28T09:16:24.532Z,1.00
2022-09-28T09:20:18.453Z,0.80
2022-09-28T09:23:44.269Z,0.80
2022-09-28T09:26:59.315Z,0.70
2022-09-28T09:30:11.672Z,1.07
2022-09-28T09:33:57.128Z,1.27
2022-09-28T09:38:03.121Z,1.00
2022-09-28T09:41:39.533Z,1.30
2022-09-28T09:45:21.923Z,1.10
2022-09-28T09:48:51.942Z,0.87
2022-09-28T09:52:03.087Z,0.60
2022-09-28T09:55:22.140Z,1.10
2022-09-28T09:58:39.621Z,0.90
2022-09-28T10:01:59.816Z,1.00
2022-09-28T10:05:25.741Z,0.93
2022-09-28T10:08:38.191Z,1.20
2022-09-28T10:11:50.278Z,0.87
2022-09-28T10:14:57.529Z,0.80
2022-09-28T10:18:13.537Z,0.70
2022-09-28T10:21:40.725Z,0.90
2022-09-28T10:25:03.745Z,0.80
2022-09-28T10:28:21.296Z,0.80
2022-09-28T10:31:38.784Z,0.77
2022-09-28T10:34:51.029Z,0.90
2022-09-28T10:38:03.615Z,0.77
2022-09-28T10:41:25.807Z,0.60
2022-09-28T10:44:53.553Z,1.00
2022-09-28T10:48:25.927Z,1.00
2022-09-28T10:51:47.149Z,0.90
2022-09-28T10:55:03.381Z,1.50
2022-09-28T10:58:28.592Z,1.00
2022-09-28T11:01:38.680Z,0.80
2022-09-28T11:04:46.270Z,0.77
2022-09-28T11:07:55.587Z,0.90
2022-09-28T11:11:10.899Z,0.60
2022-09-28T11:14:29.294Z,1.00
2022-09-28T11:17:42.271Z,0.77
2022-09-28T11:20:50.527Z,0.60
2022-09-28T11:24:23.386Z,0.67
2022-09-28T11:27:31.238Z,0.70
2022-09-28T11:30:42.872Z,0.73
2022-09-28T11:34:24.907Z,0.90
2022-09-28T11:38:00.533Z,1.00
2022-09-28T11:41:45.405Z,0.80
2022-09-28T11:44:52.274Z,1.00
2022-09-28T11:48:04.414Z,0.70
2022-09-28T11:51:19.792Z,0.63
2022-09-28T11:54:33.086Z,0.87
2022-09-28T11:57:43.406Z,0.67
2022-09-28T12:00:55.984Z,0.93
2022-09-28T12:04:16.915Z,0.77
2022-09-28T12:07:30.255Z,0.80
2022-09-28T12:10:45.284Z,1.10
2022-09-28T12:13:56.321Z,1.77
2022-09-28T12:17:09.737Z,0.90
2022-09-28T12:20:23.618Z,0.63
2022-09-28T12:23:36.862Z,0.80
2022-09-28T12:26:50.526Z,0.77
2022-09-28T12:30:03.885Z,0.93
2022-09-28T12:33:15.537Z,1.00
2022-09-28T12:36:40.639Z,0.80
2022-09-28T12:40:10.535Z,0.80
2022-09-28T12:43:35.474Z,0.90
2022-09-28T12:47:09.762Z,0.97
2022-09-28T12:50:40.636Z,0.80
2022-09-28T12:54:06.640Z,0.70
2022-09-28T12:57:40.877Z,0.80
2022-09-28T13:00:57.415Z,0.70
2022-09-28T13:04:16.158Z,0.90
2022-09-28T13:07:33.638Z,0.73
2022-09-28T13:10:45.108Z,0.80
2022-09-28T13:14:03.355Z,0.70
2022-09-28T13:17:22.193Z,0.70
2022-09-28T13:20:40.899Z,0.80
2022-09-28T13:23:49.644Z,0.70
2022-09-28T13:26:59.825Z,1.03
2022-09-28T13:30:11.566Z,1.07
2022-09-28T13:33:33.935Z,0.97
2022-09-28T13:36:48.033Z,1.10
2022-09-28T13:39:56.910Z,1.00
2022-09-28T13:43:19.563Z,1.00
2022-09-28T13:46:40.042Z,1.30
2022-09-28T13:50:00.589Z,1.00
2022-09-28T13:53:20.064Z,0.90
2022-09-28T13:56:37.939Z,1.10
2022-09-28T13:59:56.081Z,1.30
2022-09-28T14:03:15.363Z,1.40
2022-09-28T14:06:27.452Z,1.00
2022-09-28T14:10:11.005Z,1.17
2022-09-28T14:13:55.950Z,1.10
2022-09-28T14:17:50.667Z,1.30
2022-09-28T14:21:32.205Z,1.10
2022-09-28T14:24:55.631Z,0.90
2022-09-28T14:28:18.968Z,1.03
2022-09-28T14:31:29.589Z,1.00
2022-09-28T14:34:39.708Z,1.00
2022-09-28T14:38:07.696Z,1.10
2022-09-28T14:41:31.429Z,1.03
2022-09-28T14:45:39.150Z,1.10
2022-09-28T14:48:49.843Z,1.00
2022-09-28T14:52:06.424Z,1.20
2022-09-28T14:55:35.610Z,1.20
2022-09-28T14:58:42.486Z,1.10
2022-09-28T15:01:54.033Z,1.37
2022-09-28T15:05:03.503Z,0.97
2022-09-28T15:08:10.447Z,1.03
2022-09-28T15:11:23.552Z,1.20
2022-09-28T15:14:31.953Z,1.10
2022-09-28T15:17:40.427Z,1.20
2022-09-28T15:20:50.496Z,1.10
2022-09-28T15:23:56.102Z,1.33
2022-09-28T15:27:07.299Z,1.00
2022-09-28T15:30:26.039Z,1.10
2022-09-28T15:33:50.160Z,1.40
2022-09-28T15:36:56.630Z,1.20
2022-09-28T15:40:03.974Z,1.50
2022-09-28T15:43:27.182Z,1.80
2022-09-28T15:46:40.614Z,1.60
2022-09-28T15:49:58.749Z,1.40
2022-09-28T15:53:08.731Z,1.70
2022-09-28T15:56:14.662Z,1.50
2022-09-28T15:59:32.546Z,1.60
2022-09-28T16:02:38.678Z,1.53
2022-09-28T16:05:47.568Z,1.50
2022-09-28T16:08:53.905Z,1.90
2022-09-28T16:12:00.515Z,1.63
2022-09-28T16:15:18.387Z,1.30
2022-09-28T16:18:25.769Z,1.80
2022-09-28T16:21:47.283Z,2.33
2022-09-28T16:24:58.315Z,1.90
2022-09-28T16:28:04.533Z,2.10
2022-09-28T16:31:33.848Z,1.43
2022-09-28T16:34:39.586Z,1.73
2022-09-28T16:37:48.341Z,2.10
2022-09-28T16:40:55.566Z,1.70
2022-09-28T16:44:06.465Z,1.90
2022-09-28T16:47:16.126Z,2.17
2022-09-28T16:50:24.099Z,2.17
2022-09-28T16:53:57.541Z,2.40
2022-09-28T16:57:06.416Z,2.40
2022-09-28T17:00:20.977Z,2.43
2022-09-28T17:03:31.641Z,2.73
2022-09-28T17:06:37.351Z,2.80
2022-09-28T17:09:44.480Z,2.83
2022-09-28T17:12:50.692Z,3.10
2022-09-28T17:15:57.688Z,3.30
2022-09-28T17:19:06.181Z,3.13
2022-09-28T17:22:14.325Z,3.37
2022-09-28T17:25:20.245Z,4.07
2022-09-28T17:28:28.870Z,3.67
2022-09-28T17:31:34.500Z,4.13
2022-09-28T17:34:48.290Z,3.90
2022-09-28T17:38:03.212Z,3.77
2022-09-28T17:41:09.779Z,4.73
2022-09-28T17:44:16.644Z,4.40
2022-09-28T17:47:23.269Z,4.33
2022-09-28T17:50:35.139Z,4.93
2022-09-28T17:53:41.648Z,5.50
2022-09-28T17:56:47.251Z,4.10
2022-09-28T17:59:54.130Z,3.17
2022-09-28T18:03:03.568Z,3.80
2022-09-28T18:06:19.451Z,3.87
2022-09-28T18:09:25.473Z,5.07
2022-09-28T18:12:32.058Z,4.10
2022-09-28T18:15:38.283Z,4.53
2022-09-28T18:18:44.966Z,4.57
2022-09-28T18:21:54.413Z,5.10
2022-09-28T18:25:00.865Z,5.10
2022-09-28T18:28:07.332Z,5.30
2022-09-28T18:31:19.301Z,5.47
2022-09-28T18:34:25.115Z,4.80
2022-09-28T18:37:38.038Z,5.03
2022-09-28T18:40:44.364Z,5.40
2022-09-28T18:43:52.110Z,5.37
2022-09-28T18:46:57.758Z,5.20
2022-09-28T18:50:04.213Z,5.00
2022-09-28T18:53:15.643Z,5.00
2022-09-28T18:56:22.610Z,6.70
2022-09-28T18:59:28.595Z,8.30
2022-09-28T19:02:35.472Z,8.97
2022-09-28T19:05:44.742Z,9.47
2022-09-28T19:08:58.540Z,8.10
2022-09-28T19:12:06.449Z,6.27
2022-09-28T19:15:13.113Z,6.87
2022-09-28T19:18:18.705Z,6.20
2022-09-28T19:21:25.189Z,6.43
2022-09-28T19:24:33.639Z,6.30
2022-09-28T19:27:40.452Z,5.80
2022-09-28T19:30:46.231Z,6.13
2022-09-28T19:33:53.173Z,6.83
2022-09-28T19:37:01.251Z,7.77
2022-09-28T19:40:13.220Z,8.37
2022-09-28T19:43:20.007Z,5.90
2022-09-28T19:46:27.308Z,5.80
2022-09-28T19:49:33.276Z,5.23
2022-09-28T19:52:40.042Z,4.93
2022-09-28T19:55:53.932Z,5.87
2022-09-28T19:59:00.395Z,5.73
2022-09-28T20:02:08.694Z,6.10
2022-09-28T20:05:15.744Z,6.73
2022-09-28T20:08:22.110Z,6.03
2022-09-28T20:11:31.619Z,5.07
2022-09-28T20:14:40.111Z,5.20
2022-09-28T20:17:46.818Z,5.63
2022-09-28T20:21:03.483Z,5.83
2022-09-28T20:24:10.044Z,6.17
2022-09-28T20:27:18.415Z,5.93
2022-09-28T20:30:24.917Z,5.40
2022-09-28T20:33:31.149Z,7.43
2022-09-28T20:36:37.977Z,7.70
2022-09-28T20:39:45.082Z,6.47
2022-09-28T20:42:55.906Z,6.93
2022-09-28T20:46:03.490Z,7.50
2022-09-28T20:49:10.314Z,7.90
2022-09-28T20:52:15.924Z,7.97
2022-09-28T20:55:22.634Z,8.13
2022-09-28T20:58:31.934Z,7.43
2022-09-28T21:01:38.667Z,7.60
2022-09-28T21:04:45.074Z,7.77
2022-09-28T21:07:51.477Z,8.70
2022-09-28T21:10:57.086Z,8.50
2022-09-28T21:14:09.513Z,8.20
2022-09-28T21:17:15.105Z,7.67
2022-09-28T21:20:21.610Z,8.27
2022-09-28T21:23:27.186Z,7.47
2022-09-28T21:26:35.240Z,7.57
2022-09-28T21:29:43.624Z,7.60
2022-09-28T21:32:51.085Z,6.63
2022-09-28T21:35:56.944Z,7.37
2022-09-28T21:39:08.226Z,6.17
2022-09-28T21:42:15.745Z,5.90
2022-09-28T21:45:27.930Z,6.03
2022-09-28T21:48:33.699Z,6.03
2022-09-28T21:51:40.542Z,6.37
2022-09-28T21:54:46.123Z,7.03
2022-09-28T21:57:54.013Z,6.57
2022-09-28T22:01:08.850Z,5.60
2022-09-28T22:04:15.360Z,5.70
2022-09-28T22:07:20.950Z,6.80
2022-09-28T22:10:27.384Z,6.40
2022-09-28T22:13:33.607Z,6.80
2022-09-28T22:16:42.829Z,6.20
2022-09-28T22:19:48.397Z,6.50
2022-09-28T22:22:54.904Z,5.87
2022-09-28T22:26:02.862Z,6.43
2022-09-28T22:29:11.483Z,5.80
2022-09-28T22:32:19.827Z,5.80
2022-09-28T22:35:26.258Z,6.27
2022-09-28T22:38:35.394Z,5.20
2022-09-28T22:41:41.920Z,4.77
2022-09-28T22:44:47.531Z,4.20
2022-09-28T22:47:56.710Z,4.27
2022-09-28T22:51:03.257Z,3.67
2022-09-28T22:54:10.019Z,3.90
2022-09-28T22:57:15.562Z,3.87
2022-09-28T23:00:22.378Z,3.40
2022-09-28T23:03:30.869Z,3.13
2022-09-28T23:06:37.585Z,2.73
2022-09-28T23:09:43.176Z,3.00
2022-09-28T23:12:49.746Z,2.60
2022-09-28T23:15:59.589Z,2.70
2022-09-28T23:19:09.276Z,2.80
2022-09-28T23:22:14.848Z,2.80
2022-09-28T23:25:21.899Z,2.90
2022-09-28T23:28:29.200Z,2.60
2022-09-28T23:31:36.189Z,2.97
2022-09-28T23:34:44.810Z,2.60
2022-09-28T23:37:53.619Z,2.90
2022-09-28T23:40:59.233Z,3.17
2022-09-28T23:44:06.462Z,2.97
2022-09-28T23:47:12.058Z,2.80
2022-09-28T23:50:21.278Z,2.97
2022-09-28T23:53:26.861Z,2.50
2022-09-28T23:56:33.438Z,3.17
2022-09-28T23:59:39.115Z,3.47
